This is the latest recevied weather packets stored in our database for station/object EA7KZ-10. If no packets are shown the sender has not sent any weather packets the latest 10 day(s).
| Time | Temp. | Humidity | Pressure | Rain* | Wind** | Luminosity | Snow |
|---|---|---|---|---|---|---|---|
| 1778171081 | 19.44° C | 54% | 1009 hPa | - | - | - | - |
| 1778170481 | 19.44° C | 50% | 1009 hPa | - | - | - | - |
| 1778169882 | 19.44° C | 47% | 1008.9 hPa | - | - | - | - |
| 1778169281 | 19.44° C | 50% | 1008.8 hPa | - | - | - | - |
| 1778168681 | 19.44° C | 47% | 1008.9 hPa | - | - | - | - |
| 1778168081 | 19.44° C | 47% | 1008.9 hPa | - | - | - | - |
| 1778167481 | 19.44° C | 49% | 1009 hPa | - | - | - | - |
| 1778166882 | 19.44° C | 47% | 1009.1 hPa | - | - | - | - |
| 1778166281 | 19.44° C | 50% | 1009.2 hPa | - | - | - | - |
| 1778165681 | 19.44° C | 51% | 1009.3 hPa | - | - | - | - |
| 1778165081 | 18.89° C | 52% | 1009.6 hPa | - | - | - | - |
| 1778164481 | 18.89° C | 51% | 1009.7 hPa | - | - | - | - |
| 1778163881 | 18.89° C | 52% | 1009.8 hPa | - | - | - | - |
| 1778163281 | 18.89° C | 50% | 1010.2 hPa | - | - | - | - |
| 1778162681 | 18.33° C | 52% | 1010.5 hPa | - | - | - | - |
| 1778162081 | 18.89° C | 50% | 1010.4 hPa | - | - | - | - |
| 1778161481 | 18.33° C | 55% | 1010.7 hPa | - | - | - | - |
| 1778160881 | 17.78° C | 53% | 1011.1 hPa | - | - | - | - |
| 1778158801 | 19.44° C | 43% | 1010.2 hPa | - | - | - | - |
| 1778158200 | 20° C | 40% | 1009.9 hPa | - | - | - | - |
| 1778157601 | 20° C | 41% | 1009.8 hPa | - | - | - | - |
| 1778157001 | 19.44° C | 41% | 1010 hPa | - | - | - | - |
| 1778156401 | 19.44° C | 42% | 1010.1 hPa | - | - | - | - |
| 1778155801 | 19.44° C | 42% | 1010.2 hPa | - | - | - | - |
| 1778155201 | 19.44° C | 42% | 1010.3 hPa | - | - | - | - |
* Rain since midnight (hover to see other rain measurements)
** Current wind speed in m/s (hover to see current wind gust speed)